Terminal Aerodrome Forecast
Issued by NWS

Home | Current Version | Previous Version | Text Only | Print | Product List | Glossary On
Versions: 1 2 3 4 5 6 7 8 9 10 11 12 13 14 15 16 17 18 19 20
000
FTUS46 KSEW 281720
TAFBLI
TAF
KBLI 281720Z 2818/2918 15018G28KT P6SM -RA OVC020
     FM290000 18012G22KT P6SM -RA OVC020
     FM290600 15015G25KT 5SM -RA BR OVC015=

USA.gov is the U.S. government's official web portal to all federal, state and local government web resources and services.